Pirovskoe, Russia
Current Conditions -  °F | °C
As of 10:30 PM on Saturday 20 Dec 2014 (Local Time) from UNKL Reporting Station
Clear Clear  
Wind Chill:   Ceiling: Unl
Heat Index:   Visibility: 6mi
Dew Point:   Wind: 0mph
Humidity: 85%   Direction: NA
Pressure: 30.36"   Gusts: NA
Location:  57.63°N, 92.27°E
Report Text: UNKL 201530Z 00000MPS CAVOK M14/M16 Q1028 NOSIG RMK QFE74529////65
Loading
Personal Weather Stations






























Interactive Weather Map New forecast layout! Learn more

10-Day Weather Forecast

Advertisements
Track Severe Weather on mobile